createdAt,value
2019-02-19T00:02:30.653Z,4.40
2019-02-19T00:07:34.062Z,4.77
2019-02-19T00:12:37.490Z,4.77
2019-02-19T00:17:40.896Z,3.77
2019-02-19T00:22:44.300Z,4.60
2019-02-19T00:27:47.717Z,3.30
2019-02-19T00:32:51.147Z,3.30
2019-02-19T00:37:54.534Z,3.87
2019-02-19T00:42:57.993Z,2.43
2019-02-19T00:48:01.491Z,4.67
2019-02-19T00:53:04.930Z,3.90
2019-02-19T00:58:08.409Z,5.55
2019-02-19T01:03:11.798Z,3.07
2019-02-19T01:08:15.264Z,3.13
2019-02-19T01:13:18.633Z,3.00
2019-02-19T01:18:22.138Z,3.60
2019-02-19T01:23:25.533Z,3.60
2019-02-19T01:28:28.978Z,3.73
2019-02-19T01:33:32.362Z,2.98
2019-02-19T01:38:35.768Z,2.87
2019-02-19T01:43:39.182Z,3.40
2019-02-19T01:48:42.624Z,3.23
2019-02-19T01:53:46.031Z,3.77
2019-02-19T01:58:49.586Z,4.30
2019-02-19T02:03:53.083Z,3.63
2019-02-19T02:08:56.443Z,4.20
2019-02-19T02:13:59.971Z,4.47
2019-02-19T02:19:03.452Z,3.13
2019-02-19T02:24:06.957Z,3.10
2019-02-19T02:29:10.520Z,3.50
2019-02-19T02:34:13.932Z,3.07
2019-02-19T02:39:17.404Z,4.60
2019-02-19T02:44:20.803Z,3.83
2019-02-19T02:49:24.261Z,3.57
2019-02-19T02:54:27.804Z,3.73
2019-02-19T02:59:31.294Z,3.07
2019-02-19T03:04:34.901Z,5.47
2019-02-19T03:09:38.543Z,3.20
2019-02-19T03:14:42.205Z,3.80
2019-02-19T03:19:45.804Z,3.33
2019-02-19T03:24:49.265Z,3.83
2019-02-19T03:29:52.670Z,3.37
2019-02-19T03:34:56.110Z,2.40
2019-02-19T03:39:59.691Z,3.30
2019-02-19T03:45:03.132Z,3.57
2019-02-19T03:50:06.643Z,3.40
2019-02-19T03:55:10.135Z,3.33
2019-02-19T04:00:13.593Z,3.03
2019-02-19T04:05:17.245Z,2.33
2019-02-19T04:10:20.638Z,2.43
2019-02-19T04:15:24.091Z,3.63
2019-02-19T04:20:27.484Z,3.73
2019-02-19T04:25:31.003Z,5.07
2019-02-19T04:30:34.411Z,3.57
2019-02-19T04:35:37.880Z,3.87
2019-02-19T04:40:41.320Z,3.60
2019-02-19T04:45:44.742Z,2.93
2019-02-19T04:50:48.149Z,3.27
2019-02-19T04:55:51.714Z,4.07
2019-02-19T05:00:55.169Z,3.57
2019-02-19T05:05:58.678Z,4.47
2019-02-19T05:11:02.158Z,2.93
2019-02-19T05:16:05.605Z,2.93
2019-02-19T05:21:09.086Z,3.50
2019-02-19T05:26:12.629Z,4.70
2019-02-19T05:31:16.255Z,3.13
2019-02-19T05:36:19.805Z,2.77
2019-02-19T05:41:23.480Z,3.17
2019-02-19T05:46:27.022Z,4.23
2019-02-19T05:51:30.573Z,3.87
2019-02-19T05:56:34.141Z,3.43
2019-02-19T06:01:38.287Z,3.17
2019-02-19T06:06:41.962Z,3.45
2019-02-19T06:11:46.451Z,2.53
2019-02-19T06:16:58.066Z,3.80
2019-02-19T06:21:53.671Z,3.87
2019-02-19T06:26:58.453Z,4.13
2019-02-19T06:32:01.995Z,3.67
2019-02-19T06:37:05.507Z,4.40
2019-02-19T06:42:08.923Z,3.40
2019-02-19T06:47:12.729Z,3.37
2019-02-19T06:52:16.164Z,4.33
2019-02-19T06:57:19.564Z,4.75
2019-02-19T07:02:31.935Z,3.93
2019-02-19T07:07:35.385Z,4.93
2019-02-19T07:12:39.003Z,5.40
2019-02-19T07:17:42.642Z,5.23
2019-02-19T07:22:46.121Z,4.30
2019-02-19T07:27:49.674Z,4.37
2019-02-19T07:32:54.224Z,4.70
2019-02-19T07:37:57.779Z,6.30
2019-02-19T07:43:01.197Z,5.57
2019-02-19T07:48:04.714Z,5.93
2019-02-19T07:53:08.315Z,6.13
2019-02-19T07:58:11.756Z,7.40
2019-02-19T08:03:15.251Z,7.10
2019-02-19T08:08:18.768Z,6.50
2019-02-19T08:13:22.292Z,6.70
2019-02-19T08:18:25.852Z,5.37
2019-02-19T08:23:29.946Z,7.17
2019-02-19T08:28:32.827Z,7.57
2019-02-19T08:33:36.464Z,5.70
2019-02-19T08:38:39.920Z,6.30
2019-02-19T08:43:43.327Z,7.53
2019-02-19T08:48:46.752Z,8.30
2019-02-19T08:53:50.247Z,7.13
2019-02-19T08:58:53.684Z,7.57
2019-02-19T09:03:57.268Z,8.23
2019-02-19T09:09:00.804Z,7.73
2019-02-19T09:14:05.246Z,8.13
2019-02-19T09:19:08.649Z,8.57
2019-02-19T09:24:12.060Z,7.67
2019-02-19T09:29:15.443Z,8.37
2019-02-19T09:34:18.850Z,8.70
2019-02-19T09:39:22.352Z,8.57
2019-02-19T09:44:25.784Z,7.77
2019-02-19T09:49:29.212Z,7.67
2019-02-19T09:54:32.637Z,9.93
2019-02-19T09:59:36.168Z,8.25
2019-02-19T10:04:39.649Z,8.83
2019-02-19T10:09:43.039Z,8.30
2019-02-19T10:14:46.508Z,8.93
2019-02-19T10:19:49.892Z,9.20
2019-02-19T10:24:53.269Z,8.00
2019-02-19T10:29:56.672Z,8.33
2019-02-19T10:35:00.196Z,8.63
2019-02-19T10:40:03.690Z,8.20
2019-02-19T10:45:08.634Z,9.85
2019-02-19T10:50:12.095Z,9.67
2019-02-19T10:55:15.591Z,8.93
2019-02-19T11:00:19.100Z,9.47
2019-02-19T11:05:22.592Z,9.03
2019-02-19T11:10:25.952Z,9.43
2019-02-19T11:15:29.638Z,8.53
2019-02-19T11:20:33.121Z,8.30
2019-02-19T11:25:36.523Z,10.70
2019-02-19T11:30:39.967Z,8.93
2019-02-19T11:35:43.355Z,8.67
2019-02-19T11:40:46.765Z,10.17
2019-02-19T11:45:50.140Z,9.53
2019-02-19T11:50:53.590Z,8.93
2019-02-19T11:55:57.091Z,9.83
2019-02-19T12:01:00.495Z,9.47
2019-02-19T12:06:03.909Z,9.43
2019-02-19T12:11:07.332Z,9.27
2019-02-19T12:16:10.731Z,9.33
2019-02-19T12:21:14.198Z,9.47
2019-02-19T12:26:17.608Z,9.90
2019-02-19T12:31:21.014Z,10.20
2019-02-19T12:36:24.531Z,11.20
2019-02-19T12:41:27.931Z,10.53
2019-02-19T12:46:31.435Z,9.87
2019-02-19T12:51:34.821Z,9.93
2019-02-19T12:56:38.279Z,10.27
2019-02-19T13:01:42.103Z,10.57
2019-02-19T13:06:45.505Z,9.87
2019-02-19T13:11:48.905Z,8.87
2019-02-19T13:16:52.375Z,9.97
2019-02-19T13:21:55.787Z,9.80
2019-02-19T13:26:59.490Z,9.97
2019-02-19T13:32:02.984Z,10.23
2019-02-19T13:37:06.613Z,8.80
2019-02-19T13:42:10.025Z,10.00
2019-02-19T13:47:13.436Z,14.23
2019-02-19T13:52:23.482Z,4.33
2019-02-19T13:57:25.551Z,7.87
2019-02-19T14:02:29.120Z,7.50
2019-02-19T14:07:32.548Z,4.93
2019-02-19T14:12:36.032Z,5.10
2019-02-19T14:17:39.483Z,3.60
2019-02-19T14:22:47.973Z,5.60
2019-02-19T14:27:55.791Z,5.67
2019-02-19T14:35:05.578Z,3.45
2019-02-19T14:40:13.432Z,5.33
2019-02-19T14:45:25.057Z,3.60
2019-02-19T14:50:53.728Z,6.20
2019-02-19T14:58:07.478Z,3.27
2019-02-19T15:03:16.417Z,3.90
2019-02-19T15:08:25.084Z,4.63
2019-02-19T15:13:36.617Z,3.10
2019-02-19T15:18:49.107Z,3.93
2019-02-19T15:26:04.864Z,4.40
2019-02-19T15:31:13.597Z,3.70
2019-02-19T15:36:22.255Z,4.00
2019-02-19T15:41:30.928Z,4.00
2019-02-19T15:47:10.396Z,4.23
2019-02-19T15:52:37.919Z,4.43
2019-02-19T15:57:50.563Z,4.27
2019-02-19T16:02:58.288Z,3.10
2019-02-19T16:08:10.975Z,3.80
2019-02-19T16:13:19.568Z,3.50
2019-02-19T16:18:42.425Z,3.63
2019-02-19T16:23:57.175Z,4.27
2019-02-19T16:29:13.688Z,3.83
2019-02-19T16:34:21.348Z,4.43
2019-02-19T16:41:37.020Z,4.27
2019-02-19T16:46:51.567Z,5.83
2019-02-19T16:52:11.280Z,5.27
2019-02-19T16:57:25.018Z,6.07
2019-02-19T17:03:40.669Z,4.13
2019-02-19T17:08:49.111Z,5.50
2019-02-19T17:14:02.787Z,5.90
2019-02-19T17:19:13.251Z,6.10
2019-02-19T17:24:24.721Z,4.87
2019-02-19T17:29:33.349Z,5.73
2019-02-19T17:35:12.008Z,4.97
2019-02-19T17:40:24.564Z,4.33
2019-02-19T17:45:35.060Z,5.70
2019-02-19T17:50:45.552Z,5.57
2019-02-19T17:55:54.383Z,5.67
2019-02-19T18:01:03.073Z,5.90
2019-02-19T18:06:12.624Z,6.73
2019-02-19T18:11:21.425Z,6.40
2019-02-19T18:16:29.061Z,6.83
2019-02-19T18:21:32.617Z,5.47
2019-02-19T18:26:37.118Z,7.87
2019-02-19T18:31:40.829Z,7.70
2019-02-19T18:36:44.417Z,6.50
2019-02-19T18:41:47.984Z,7.53
2019-02-19T18:46:51.601Z,7.00
2019-02-19T18:51:55.320Z,6.83
2019-02-19T18:56:58.850Z,6.57
2019-02-19T19:02:02.434Z,6.27
2019-02-19T19:07:05.876Z,5.20
2019-02-19T19:12:09.332Z,7.63
2019-02-19T19:17:12.983Z,7.43
2019-02-19T19:22:17.088Z,5.87
2019-02-19T19:27:21.474Z,5.80
2019-02-19T19:32:25.233Z,6.37
2019-02-19T19:37:30.052Z,6.23
2019-02-19T19:42:33.519Z,6.17
2019-02-19T19:47:37.177Z,6.70
2019-02-19T19:52:41.257Z,6.50
2019-02-19T19:57:45.065Z,7.00
2019-02-19T20:02:48.807Z,7.73
2019-02-19T20:07:53.232Z,8.47
2019-02-19T20:12:57.025Z,8.57
2019-02-19T20:18:01.460Z,8.40
2019-02-19T20:23:05.221Z,10.93
2019-02-19T20:28:08.966Z,8.90
2019-02-19T20:33:13.058Z,10.00
2019-02-19T20:38:16.993Z,8.77
2019-02-19T20:43:21.163Z,9.20
2019-02-19T20:48:24.806Z,10.07
2019-02-19T20:53:29.215Z,11.03
2019-02-19T20:58:33.975Z,9.70
2019-02-19T21:03:36.755Z,9.70
2019-02-19T21:08:40.495Z,9.00
2019-02-19T21:13:44.383Z,8.60
2019-02-19T21:18:47.915Z,9.33
2019-02-19T21:23:51.615Z,10.30
2019-02-19T21:28:55.356Z,8.87
2019-02-19T21:33:59.267Z,8.10
2019-02-19T21:39:02.964Z,9.50
2019-02-19T21:44:06.681Z,8.13
2019-02-19T21:49:10.384Z,8.47
2019-02-19T21:54:13.989Z,8.53
2019-02-19T21:59:17.867Z,7.90
2019-02-19T22:04:21.475Z,6.70
2019-02-19T22:09:25.242Z,4.83
2019-02-19T22:14:29.013Z,5.60
2019-02-19T22:19:32.683Z,5.63
2019-02-19T22:24:37.444Z,5.10
2019-02-19T22:29:41.046Z,4.60
2019-02-19T22:34:44.539Z,4.87
2019-02-19T22:39:48.038Z,5.50
2019-02-19T22:44:51.696Z,6.60
2019-02-19T22:49:55.299Z,5.30
2019-02-19T22:55:16.293Z,6.17
2019-02-19T23:00:25.604Z,5.93
2019-02-19T23:05:29.387Z,5.53
2019-02-19T23:10:33.312Z,7.10
2019-02-19T23:15:37.183Z,5.15
2019-02-19T23:20:40.988Z,5.40
2019-02-19T23:25:44.521Z,6.17
2019-02-19T23:30:47.900Z,7.63
2019-02-19T23:35:55.557Z,6.03
2019-02-19T23:40:59.013Z,6.43
2019-02-19T23:46:02.844Z,6.67
2019-02-19T23:51:06.244Z,7.80
2019-02-19T23:56:09.680Z,6.60
